sensor_id;sensor_type;location;lat;lon;timestamp;pressure;altitude;pressure_sealevel;temperature;humidity
7474;BME280;3778;42.572;23.426;2024-03-02T00:02:06;93082.22;;;5.94;84.66
7474;BME280;3778;42.572;23.426;2024-03-02T00:04:31;93080.44;;;5.94;83.93
7474;BME280;3778;42.572;23.426;2024-03-02T00:06:57;93089.91;;;5.94;83.70
7474;BME280;3778;42.572;23.426;2024-03-02T00:09:22;93083.81;;;6.00;84.27
7474;BME280;3778;42.572;23.426;2024-03-02T00:11:48;93082.56;;;6.02;83.68
7474;BME280;3778;42.572;23.426;2024-03-02T00:14:13;93087.94;;;6.06;84.09
7474;BME280;3778;42.572;23.426;2024-03-02T00:16:38;93086.66;;;6.03;84.28
7474;BME280;3778;42.572;23.426;2024-03-02T00:19:05;93083.34;;;6.03;84.03
7474;BME280;3778;42.572;23.426;2024-03-02T00:21:32;93070.03;;;6.06;84.38
7474;BME280;3778;42.572;23.426;2024-03-02T00:23:58;93064.13;;;6.00;84.61
7474;BME280;3778;42.572;23.426;2024-03-02T00:26:25;93070.00;;;5.96;85.14
7474;BME280;3778;42.572;23.426;2024-03-02T00:28:54;93063.34;;;6.00;84.42
7474;BME280;3778;42.572;23.426;2024-03-02T00:31:22;93063.34;;;5.95;84.93
7474;BME280;3778;42.572;23.426;2024-03-02T00:33:48;93064.91;;;6.01;84.41
7474;BME280;3778;42.572;23.426;2024-03-02T00:36:15;93060.53;;;5.96;85.20
7474;BME280;3778;42.572;23.426;2024-03-02T00:38:46;93067.44;;;5.96;85.59
7474;BME280;3778;42.572;23.426;2024-03-02T00:44:06;93047.53;;;6.03;84.42
7474;BME280;3778;42.572;23.426;2024-03-02T00:46:34;93052.97;;;6.16;83.68
7474;BME280;3778;42.572;23.426;2024-03-02T00:49:02;93061.72;;;6.26;83.15
7474;BME280;3778;42.572;23.426;2024-03-02T00:51:30;93055.41;;;6.38;82.34
7474;BME280;3778;42.572;23.426;2024-03-02T00:53:58;93033.53;;;6.15;83.48
7474;BME280;3778;42.572;23.426;2024-03-02T00:56:24;93036.38;;;6.24;82.56
7474;BME280;3778;42.572;23.426;2024-03-02T00:58:50;93027.22;;;6.33;82.19
7474;BME280;3778;42.572;23.426;2024-03-02T01:01:17;93037.50;;;6.38;81.67
7474;BME280;3778;42.572;23.426;2024-03-02T01:03:43;93036.47;;;6.39;81.67
7474;BME280;3778;42.572;23.426;2024-03-02T01:06:09;93045.38;;;6.37;82.04
7474;BME280;3778;42.572;23.426;2024-03-02T01:08:35;93038.22;;;6.34;81.31
7474;BME280;3778;42.572;23.426;2024-03-02T01:11:01;93041.84;;;6.38;81.73
7474;BME280;3778;42.572;23.426;2024-03-02T01:13:27;93035.22;;;6.52;80.69
7474;BME280;3778;42.572;23.426;2024-03-02T01:15:53;93032.94;;;6.61;79.50
7474;BME280;3778;42.572;23.426;2024-03-02T01:18:18;93040.34;;;6.52;80.82
7474;BME280;3778;42.572;23.426;2024-03-02T01:20:44;93032.16;;;6.50;81.59
7474;BME280;3778;42.572;23.426;2024-03-02T01:23:09;93026.47;;;6.43;81.88
7474;BME280;3778;42.572;23.426;2024-03-02T01:25:35;93027.50;;;6.42;82.47
7474;BME280;3778;42.572;23.426;2024-03-02T01:28:01;93028.28;;;6.42;82.99
7474;BME280;3778;42.572;23.426;2024-03-02T01:30:26;93033.94;;;6.44;82.85
7474;BME280;3778;42.572;23.426;2024-03-02T01:32:52;93023.19;;;6.53;82.43
7474;BME280;3778;42.572;23.426;2024-03-02T01:35:17;93020.38;;;6.54;81.68
7474;BME280;3778;42.572;23.426;2024-03-02T01:37:43;93021.16;;;6.50;82.61
7474;BME280;3778;42.572;23.426;2024-03-02T01:40:08;93017.03;;;6.49;82.66
7474;BME280;3778;42.572;23.426;2024-03-02T01:42:38;93011.41;;;6.47;82.91
7474;BME280;3778;42.572;23.426;2024-03-02T01:45:10;93002.69;;;6.42;82.83
7474;BME280;3778;42.572;23.426;2024-03-02T01:47:35;93012.41;;;6.40;82.32
7474;BME280;3778;42.572;23.426;2024-03-02T01:50:01;93010.34;;;6.42;82.85
7474;BME280;3778;42.572;23.426;2024-03-02T01:52:27;93011.91;;;6.43;81.87
7474;BME280;3778;42.572;23.426;2024-03-02T01:54:52;93015.22;;;6.39;82.52
7474;BME280;3778;42.572;23.426;2024-03-02T01:57:18;93012.13;;;6.37;82.84
7474;BME280;3778;42.572;23.426;2024-03-02T01:59:44;93019.88;;;6.52;82.78
7474;BME280;3778;42.572;23.426;2024-03-02T02:02:10;93013.50;;;6.60;81.78
7474;BME280;3778;42.572;23.426;2024-03-02T02:04:35;93012.75;;;6.64;81.94
7474;BME280;3778;42.572;23.426;2024-03-02T02:07:01;93015.56;;;6.63;81.75
7474;BME280;3778;42.572;23.426;2024-03-02T02:09:26;93012.25;;;6.62;81.53
7474;BME280;3778;42.572;23.426;2024-03-02T02:11:52;93007.34;;;6.61;81.61
7474;BME280;3778;42.572;23.426;2024-03-02T02:14:17;93004.25;;;6.54;81.96
7474;BME280;3778;42.572;23.426;2024-03-02T02:16:43;93010.91;;;6.44;82.95
7474;BME280;3778;42.572;23.426;2024-03-02T02:19:08;93004.25;;;6.43;82.90
7474;BME280;3778;42.572;23.426;2024-03-02T02:21:34;93000.13;;;6.42;82.95
7474;BME280;3778;42.572;23.426;2024-03-02T02:24:00;93000.13;;;6.37;83.29
7474;BME280;3778;42.572;23.426;2024-03-02T02:26:28;93004.22;;;6.38;83.51
7474;BME280;3778;42.572;23.426;2024-03-02T02:28:53;93003.25;;;6.50;83.03
7474;BME280;3778;42.572;23.426;2024-03-02T02:31:19;93007.88;;;6.58;82.66
7474;BME280;3778;42.572;23.426;2024-03-02T02:33:44;93007.81;;;6.48;83.32
7474;BME280;3778;42.572;23.426;2024-03-02T02:36:09;93001.47;;;6.55;82.80
7474;BME280;3778;42.572;23.426;2024-03-02T02:38:40;93007.84;;;6.53;83.61
7474;BME280;3778;42.572;23.426;2024-03-02T02:41:08;93009.84;;;6.40;83.90
7474;BME280;3778;42.572;23.426;2024-03-02T02:43:33;93005.22;;;6.42;84.04
7474;BME280;3778;42.572;23.426;2024-03-02T02:45:59;93006.81;;;6.54;83.08
7474;BME280;3778;42.572;23.426;2024-03-02T02:48:24;93008.13;;;6.56;82.65
7474;BME280;3778;42.572;23.426;2024-03-02T02:50:49;93005.06;;;6.59;82.72
7474;BME280;3778;42.572;23.426;2024-03-02T02:53:15;93008.91;;;6.62;82.49
7474;BME280;3778;42.572;23.426;2024-03-02T02:55:40;93004.00;;;6.50;82.76
7474;BME280;3778;42.572;23.426;2024-03-02T02:58:06;93004.78;;;6.51;82.23
7474;BME280;3778;42.572;23.426;2024-03-02T03:00:32;93001.69;;;6.43;82.71
7474;BME280;3778;42.572;23.426;2024-03-02T03:02:57;93007.78;;;6.37;82.30
7474;BME280;3778;42.572;23.426;2024-03-02T03:05:23;93008.84;;;6.47;81.66
7474;BME280;3778;42.572;23.426;2024-03-02T03:07:48;92995.00;;;6.37;82.21
7474;BME280;3778;42.572;23.426;2024-03-02T03:10:15;93004.69;;;6.35;81.61
7474;BME280;3778;42.572;23.426;2024-03-02T03:12:41;92996.50;;;6.33;82.61
7474;BME280;3778;42.572;23.426;2024-03-02T03:15:08;93003.19;;;6.39;82.66
7474;BME280;3778;42.572;23.426;2024-03-02T03:17:34;93008.06;;;6.41;82.71
7474;BME280;3778;42.572;23.426;2024-03-02T03:20:00;93001.13;;;6.36;82.64
7474;BME280;3778;42.572;23.426;2024-03-02T03:22:26;93005.25;;;6.37;83.10
7474;BME280;3778;42.572;23.426;2024-03-02T03:24:51;93004.44;;;6.37;82.72
7474;BME280;3778;42.572;23.426;2024-03-02T03:27:17;93010.59;;;6.36;83.07
7474;BME280;3778;42.572;23.426;2024-03-02T03:29:42;93009.06;;;6.40;83.08
7474;BME280;3778;42.572;23.426;2024-03-02T03:32:08;93002.69;;;6.42;83.53
7474;BME280;3778;42.572;23.426;2024-03-02T03:34:33;93006.00;;;6.43;82.91
7474;BME280;3778;42.572;23.426;2024-03-02T03:36:59;93010.91;;;6.44;82.94
7474;BME280;3778;42.572;23.426;2024-03-02T03:39:24;93002.97;;;6.51;82.20
7474;BME280;3778;42.572;23.426;2024-03-02T03:41:50;93004.25;;;6.54;82.06
7474;BME280;3778;42.572;23.426;2024-03-02T03:44:16;92999.38;;;6.47;82.13
7474;BME280;3778;42.572;23.426;2024-03-02T03:46:41;93002.47;;;6.54;82.24
7474;BME280;3778;42.572;23.426;2024-03-02T03:49:07;93005.53;;;6.51;82.46
7474;BME280;3778;42.572;23.426;2024-03-02T03:51:33;93002.50;;;6.59;81.79
7474;BME280;3778;42.572;23.426;2024-03-02T03:53:58;93006.59;;;6.55;81.57
7474;BME280;3778;42.572;23.426;2024-03-02T03:56:24;93008.13;;;6.56;81.51
7474;BME280;3778;42.572;23.426;2024-03-02T03:58:49;93003.72;;;6.47;82.30
7474;BME280;3778;42.572;23.426;2024-03-02T04:01:14;93013.72;;;6.48;81.72
7474;BME280;3778;42.572;23.426;2024-03-02T04:03:40;93005.56;;;6.56;81.93
7474;BME280;3778;42.572;23.426;2024-03-02T04:06:05;93004.28;;;6.59;81.77
7474;BME280;3778;42.572;23.426;2024-03-02T04:08:31;93004.28;;;6.59;81.59
7474;BME280;3778;42.572;23.426;2024-03-02T04:10:56;93011.88;;;6.38;82.84
7474;BME280;3778;42.572;23.426;2024-03-02T04:13:22;93005.22;;;6.32;82.84
7474;BME280;3778;42.572;23.426;2024-03-02T04:15:47;93004.69;;;6.25;83.59
7474;BME280;3778;42.572;23.426;2024-03-02T04:18:12;93007.72;;;6.22;83.38
7474;BME280;3778;42.572;23.426;2024-03-02T04:20:38;93008.75;;;6.21;83.01
7474;BME280;3778;42.572;23.426;2024-03-02T04:23:03;93006.66;;;6.18;83.67
7474;BME280;3778;42.572;23.426;2024-03-02T04:25:29;93007.16;;;6.15;83.76
7474;BME280;3778;42.572;23.426;2024-03-02T04:27:54;93011.25;;;6.16;83.55
7474;BME280;3778;42.572;23.426;2024-03-02T04:30:19;93017.44;;;6.20;83.96
7474;BME280;3778;42.572;23.426;2024-03-02T04:32:45;93015.59;;;6.10;84.09
7474;BME280;3778;42.572;23.426;2024-03-02T04:35:14;93011.50;;;6.09;84.32
7474;BME280;3778;42.572;23.426;2024-03-02T04:37:39;93016.34;;;6.11;83.57
7474;BME280;3778;42.572;23.426;2024-03-02T04:40:05;93025.31;;;6.08;83.60
7474;BME280;3778;42.572;23.426;2024-03-02T04:42:34;93013.78;;;6.11;83.63
7474;BME280;3778;42.572;23.426;2024-03-02T04:45:00;93019.50;;;6.23;82.92
7474;BME280;3778;42.572;23.426;2024-03-02T04:47:25;93016.69;;;6.30;82.03
7474;BME280;3778;42.572;23.426;2024-03-02T04:49:51;93014.13;;;6.25;82.27
7474;BME280;3778;42.572;23.426;2024-03-02T04:52:16;93013.84;;;6.21;82.17
7474;BME280;3778;42.572;23.426;2024-03-02T04:54:42;93018.94;;;6.16;82.65
7474;BME280;3778;42.572;23.426;2024-03-02T04:57:26;93015.38;;;6.17;82.61
7474;BME280;3778;42.572;23.426;2024-03-02T04:59:51;93014.56;;;6.11;82.07
7474;BME280;3778;42.572;23.426;2024-03-02T05:02:17;93015.59;;;6.10;83.03
7474;BME280;3778;42.572;23.426;2024-03-02T05:04:42;93015.81;;;6.04;83.93
7474;BME280;3778;42.572;23.426;2024-03-02T05:07:07;93028.59;;;6.04;84.19
7474;BME280;3778;42.572;23.426;2024-03-02T05:09:33;93026.25;;;5.97;84.67
7474;BME280;3778;42.572;23.426;2024-03-02T05:11:58;93026.00;;;5.99;84.77
7474;BME280;3778;42.572;23.426;2024-03-02T05:14:42;93021.16;;;5.97;84.98
7474;BME280;3778;42.572;23.426;2024-03-02T05:17:07;93023.19;;;5.95;85.36
7474;BME280;3778;42.572;23.426;2024-03-02T05:19:32;93024.91;;;5.89;85.85
7474;BME280;3778;42.572;23.426;2024-03-02T05:21:58;93028.97;;;5.85;85.84
7474;BME280;3778;42.572;23.426;2024-03-02T05:24:23;93032.78;;;5.83;85.66
7474;BME280;3778;42.572;23.426;2024-03-02T05:26:49;93034.09;;;5.85;86.26
7474;BME280;3778;42.572;23.426;2024-03-02T05:29:14;93037.47;;;5.91;86.06
7474;BME280;3778;42.572;23.426;2024-03-02T05:31:40;93039.47;;;5.89;85.54
7474;BME280;3778;42.572;23.426;2024-03-02T05:34:05;93038.47;;;5.90;85.84
7474;BME280;3778;42.572;23.426;2024-03-02T05:36:31;93049.88;;;5.77;86.25
7474;BME280;3778;42.572;23.426;2024-03-02T05:38:57;93050.66;;;5.78;85.76
7474;BME280;3778;42.572;23.426;2024-03-02T05:41:22;93056.63;;;5.88;85.75
7474;BME280;3778;42.572;23.426;2024-03-02T05:43:47;93056.19;;;5.97;85.83
7474;BME280;3778;42.572;23.426;2024-03-02T05:46:13;93057.78;;;6.08;84.91
7474;BME280;3778;42.572;23.426;2024-03-02T05:48:38;93059.09;;;6.15;84.70
7474;BME280;3778;42.572;23.426;2024-03-02T05:51:04;93066.53;;;6.17;84.68
7474;BME280;3778;42.572;23.426;2024-03-02T05:53:30;93062.72;;;6.20;84.55
7474;BME280;3778;42.572;23.426;2024-03-02T05:55:58;93066.59;;;6.27;84.99
7474;BME280;3778;42.572;23.426;2024-03-02T05:58:24;93071.47;;;6.29;84.44
7474;BME280;3778;42.572;23.426;2024-03-02T06:00:49;93068.13;;;6.28;84.31
7474;BME280;3778;42.572;23.426;2024-03-02T06:03:15;93068.66;;;6.25;84.82
7474;BME280;3778;42.572;23.426;2024-03-02T06:05:40;93064.03;;;6.27;84.61
7474;BME280;3778;42.572;23.426;2024-03-02T06:08:06;93068.66;;;6.30;85.13
7474;BME280;3778;42.572;23.426;2024-03-02T06:10:32;93071.97;;;6.31;84.55
7474;BME280;3778;42.572;23.426;2024-03-02T06:12:58;93069.97;;;6.33;84.88
7474;BME280;3778;42.572;23.426;2024-03-02T06:15:24;93066.63;;;6.32;84.95
7474;BME280;3778;42.572;23.426;2024-03-02T06:17:49;93068.38;;;6.27;85.43
7474;BME280;3778;42.572;23.426;2024-03-02T06:20:15;93069.13;;;6.22;86.57
7474;BME280;3778;42.572;23.426;2024-03-02T06:22:40;93067.03;;;6.14;86.58
7474;BME280;3778;42.572;23.426;2024-03-02T06:25:06;93070.91;;;6.22;86.66
7474;BME280;3778;42.572;23.426;2024-03-02T06:27:31;93076.31;;;6.25;86.16
7474;BME280;3778;42.572;23.426;2024-03-02T06:29:57;93072.75;;;6.26;86.39
7474;BME280;3778;42.572;23.426;2024-03-02T06:32:22;93073.72;;;6.20;86.99
7474;BME280;3778;42.572;23.426;2024-03-02T06:34:49;93082.00;;;6.32;86.72
7474;BME280;3778;42.572;23.426;2024-03-02T06:37:15;93081.72;;;6.34;86.44
7474;BME280;3778;42.572;23.426;2024-03-02T06:39:41;93082.50;;;6.34;86.40
7474;BME280;3778;42.572;23.426;2024-03-02T06:42:06;93080.22;;;6.43;85.37
7474;BME280;3778;42.572;23.426;2024-03-02T06:44:32;93079.25;;;6.44;85.41
7474;BME280;3778;42.572;23.426;2024-03-02T06:46:57;93090.50;;;6.48;84.89
7474;BME280;3778;42.572;23.426;2024-03-02T06:49:22;93088.97;;;6.47;85.69
7474;BME280;3778;42.572;23.426;2024-03-02T06:51:48;93076.44;;;6.51;84.90
7474;BME280;3778;42.572;23.426;2024-03-02T06:54:13;93083.34;;;6.45;85.40
7474;BME280;3778;42.572;23.426;2024-03-02T06:56:38;93078.28;;;6.55;84.29
7474;BME280;3778;42.572;23.426;2024-03-02T06:59:04;93083.91;;;6.57;84.11
7474;BME280;3778;42.572;23.426;2024-03-02T07:01:29;93086.16;;;6.49;84.49
7474;BME280;3778;42.572;23.426;2024-03-02T07:03:55;93085.81;;;6.35;85.76
7474;BME280;3778;42.572;23.426;2024-03-02T07:06:20;93087.91;;;6.38;86.57
7474;BME280;3778;42.572;23.426;2024-03-02T07:08:45;93091.72;;;6.35;85.82
7474;BME280;3778;42.572;23.426;2024-03-02T07:11:11;93095.59;;;6.38;85.83
7474;BME280;3778;42.572;23.426;2024-03-02T07:13:36;93092.25;;;6.37;86.08
7474;BME280;3778;42.572;23.426;2024-03-02T07:16:02;93097.38;;;6.42;86.08
7474;BME280;3778;42.572;23.426;2024-03-02T07:18:36;93093.81;;;6.49;86.05
7474;BME280;3778;42.572;23.426;2024-03-02T07:21:10;93092.63;;;6.61;85.63
7474;BME280;3778;42.572;23.426;2024-03-02T07:23:35;93100.50;;;6.55;85.29
7474;BME280;3778;42.572;23.426;2024-03-02T07:26:01;93096.69;;;6.52;86.28
7474;BME280;3778;42.572;23.426;2024-03-02T07:28:27;93089.25;;;6.51;85.17
7474;BME280;3778;42.572;23.426;2024-03-02T07:31:03;93106.63;;;6.49;85.44
7474;BME280;3778;42.572;23.426;2024-03-02T07:33:30;93098.38;;;6.31;85.50
7474;BME280;3778;42.572;23.426;2024-03-02T07:35:56;93101.44;;;6.33;85.94
7474;BME280;3778;42.572;23.426;2024-03-02T07:38:22;93109.38;;;6.32;86.26
7474;BME280;3778;42.572;23.426;2024-03-02T07:40:49;93099.16;;;6.42;85.16
7474;BME280;3778;42.572;23.426;2024-03-02T07:43:18;93111.53;;;6.50;85.36
7474;BME280;3778;42.572;23.426;2024-03-02T07:45:44;93108.47;;;6.58;84.93
7474;BME280;3778;42.572;23.426;2024-03-02T07:48:10;93114.94;;;6.71;85.10
7474;BME280;3778;42.572;23.426;2024-03-02T07:50:35;93108.81;;;6.77;84.48
7474;BME280;3778;42.572;23.426;2024-03-02T07:53:03;93107.31;;;6.81;84.67
7474;BME280;3778;42.572;23.426;2024-03-02T07:55:29;93117.59;;;6.86;83.85
7474;BME280;3778;42.572;23.426;2024-03-02T07:57:56;93114.25;;;6.86;84.70
7474;BME280;3778;42.572;23.426;2024-03-02T08:00:22;93112.47;;;6.86;84.52
7474;BME280;3778;42.572;23.426;2024-03-02T08:02:48;93114.53;;;6.94;84.42
7474;BME280;3778;42.572;23.426;2024-03-02T08:05:14;93113.50;;;6.95;84.48
7474;BME280;3778;42.572;23.426;2024-03-02T08:07:40;93118.91;;;6.99;84.46
7474;BME280;3778;42.572;23.426;2024-03-02T08:10:06;93124.81;;;6.99;84.71
7474;BME280;3778;42.572;23.426;2024-03-02T08:12:32;93121.97;;;6.96;84.75
7474;BME280;3778;42.572;23.426;2024-03-02T08:14:57;93125.84;;;6.98;84.59
7474;BME280;3778;42.572;23.426;2024-03-02T08:17:23;93120.19;;;7.02;83.71
7474;BME280;3778;42.572;23.426;2024-03-02T08:19:48;93124.06;;;7.04;83.70
7474;BME280;3778;42.572;23.426;2024-03-02T08:22:15;93132.94;;;6.91;83.07
7474;BME280;3778;42.572;23.426;2024-03-02T08:24:40;93125.00;;;6.88;83.44
7474;BME280;3778;42.572;23.426;2024-03-02T08:27:06;93127.84;;;6.86;83.97
7474;BME280;3778;42.572;23.426;2024-03-02T08:29:31;93125.28;;;6.91;83.97
7474;BME280;3778;42.572;23.426;2024-03-02T08:31:56;93125.84;;;6.98;84.05
7474;BME280;3778;42.572;23.426;2024-03-02T08:34:22;93124.81;;;6.99;83.81
7474;BME280;3778;42.572;23.426;2024-03-02T08:36:47;93132.50;;;6.99;82.51
7474;BME280;3778;42.572;23.426;2024-03-02T08:39:13;93122.00;;;7.06;83.42
7474;BME280;3778;42.572;23.426;2024-03-02T08:41:44;93126.59;;;6.99;83.35
7474;BME280;3778;42.572;23.426;2024-03-02T08:44:09;93128.91;;;7.01;82.82
7474;BME280;3778;42.572;23.426;2024-03-02T08:46:35;93126.88;;;7.08;83.60
7474;BME280;3778;42.572;23.426;2024-03-02T08:49:01;93126.66;;;7.19;83.29
7474;BME280;3778;42.572;23.426;2024-03-02T08:51:26;93131.53;;;7.21;83.02
7474;BME280;3778;42.572;23.426;2024-03-02T08:53:52;93128.72;;;7.28;82.39
7474;BME280;3778;42.572;23.426;2024-03-02T08:56:17;93113.91;;;7.35;82.78
7474;BME280;3778;42.572;23.426;2024-03-02T08:58:43;93113.91;;;7.45;83.18
7474;BME280;3778;42.572;23.426;2024-03-02T09:01:10;93121.38;;;7.57;81.77
7474;BME280;3778;42.572;23.426;2024-03-02T09:03:36;93118.28;;;7.55;81.98
7474;BME280;3778;42.572;23.426;2024-03-02T09:06:02;93116.00;;;7.68;81.40
7474;BME280;3778;42.572;23.426;2024-03-02T09:08:28;93120.59;;;7.76;80.07
7474;BME280;3778;42.572;23.426;2024-03-02T09:10:54;93123.69;;;7.73;80.20
7474;BME280;3778;42.572;23.426;2024-03-02T09:13:19;93123.97;;;7.77;79.57
7474;BME280;3778;42.572;23.426;2024-03-02T09:15:45;93122.16;;;7.77;80.20
7474;BME280;3778;42.572;23.426;2024-03-02T09:18:10;93127.06;;;7.84;80.79
7474;BME280;3778;42.572;23.426;2024-03-02T09:20:36;93128.06;;;7.93;79.88
7474;BME280;3778;42.572;23.426;2024-03-02T09:23:01;93127.81;;;7.90;80.21
7474;BME280;3778;42.572;23.426;2024-03-02T09:25:26;93132.19;;;7.89;78.83
7474;BME280;3778;42.572;23.426;2024-03-02T09:27:52;93124.22;;;7.91;80.30
7474;BME280;3778;42.572;23.426;2024-03-02T09:30:17;93128.59;;;7.95;78.88
7474;BME280;3778;42.572;23.426;2024-03-02T09:32:43;93128.56;;;8.00;79.91
7474;BME280;3778;42.572;23.426;2024-03-02T09:35:08;93130.66;;;8.14;79.39
7474;BME280;3778;42.572;23.426;2024-03-02T09:37:34;93131.16;;;8.11;79.34
7474;BME280;3778;42.572;23.426;2024-03-02T09:40:00;93130.66;;;8.14;78.67
7474;BME280;3778;42.572;23.426;2024-03-02T09:42:29;93132.69;;;8.17;78.94
7474;BME280;3778;42.572;23.426;2024-03-02T09:44:55;93133.47;;;8.07;78.53
7474;BME280;3778;42.572;23.426;2024-03-02T09:47:22;93132.94;;;8.15;78.81
7474;BME280;3778;42.572;23.426;2024-03-02T09:49:47;93129.84;;;8.18;78.29
7474;BME280;3778;42.572;23.426;2024-03-02T09:52:13;93138.34;;;8.03;78.75
7474;BME280;3778;42.572;23.426;2024-03-02T09:54:40;93128.84;;;8.09;77.77
7474;BME280;3778;42.572;23.426;2024-03-02T09:57:05;93130.88;;;8.12;78.49
7474;BME280;3778;42.572;23.426;2024-03-02T09:59:30;93133.97;;;8.09;79.48
7474;BME280;3778;42.572;23.426;2024-03-02T10:02:00;93124.72;;;8.28;79.50
7474;BME280;3778;42.572;23.426;2024-03-02T10:04:27;93134.50;;;8.37;78.36
7474;BME280;3778;42.572;23.426;2024-03-02T10:07:15;93123.19;;;8.43;77.79
7474;BME280;3778;42.572;23.426;2024-03-02T10:09:42;93127.56;;;8.47;78.00
7474;BME280;3778;42.572;23.426;2024-03-02T10:12:08;93122.41;;;8.52;77.69
7474;BME280;3778;42.572;23.426;2024-03-02T10:14:34;93131.38;;;8.60;77.06
7474;BME280;3778;42.572;23.426;2024-03-02T10:17:07;93133.94;;;8.55;78.55
7474;BME280;3778;42.572;23.426;2024-03-02T10:19:33;93129.34;;;8.52;77.70
7474;BME280;3778;42.572;23.426;2024-03-02T10:22:01;93130.13;;;8.42;78.63
7474;BME280;3778;42.572;23.426;2024-03-02T10:24:28;93125.75;;;8.48;78.38
7474;BME280;3778;42.572;23.426;2024-03-02T10:27:00;93129.63;;;8.50;77.29
7474;BME280;3778;42.572;23.426;2024-03-02T10:29:25;93129.34;;;8.57;78.29
7474;BME280;3778;42.572;23.426;2024-03-02T10:31:54;93126.78;;;8.57;77.20
7474;BME280;3778;42.572;23.426;2024-03-02T10:34:21;93123.41;;;8.67;78.02
7474;BME280;3778;42.572;23.426;2024-03-02T10:36:47;93124.16;;;8.72;76.17
7474;BME280;3778;42.572;23.426;2024-03-02T10:39:14;93128.78;;;8.80;77.00
7474;BME280;3778;42.572;23.426;2024-03-02T10:41:39;93129.53;;;8.86;76.12
7474;BME280;3778;42.572;23.426;2024-03-02T10:44:09;93121.31;;;8.79;77.33
7474;BME280;3778;42.572;23.426;2024-03-02T10:46:36;93123.34;;;8.87;74.70
7474;BME280;3778;42.572;23.426;2024-03-02T10:49:03;93125.44;;;8.75;77.20
7474;BME280;3778;42.572;23.426;2024-03-02T10:51:31;93122.63;;;8.66;78.19
7474;BME280;3778;42.572;23.426;2024-03-02T10:54:02;93119.56;;;8.64;77.94
7474;BME280;3778;42.572;23.426;2024-03-02T10:56:42;93118.28;;;8.62;77.44
7474;BME280;3778;42.572;23.426;2024-03-02T10:59:35;93114.44;;;8.59;78.23
7474;BME280;3778;42.572;23.426;2024-03-02T11:02:03;93114.72;;;8.47;79.10
7474;BME280;3778;42.572;23.426;2024-03-02T11:04:30;93113.69;;;8.18;80.38
7474;BME280;3778;42.572;23.426;2024-03-02T11:06:59;93108.56;;;8.23;81.35
7474;BME280;3778;42.572;23.426;2024-03-02T11:09:27;93115.75;;;8.16;81.98
7474;BME280;3778;42.572;23.426;2024-03-02T11:12:09;93117.81;;;7.98;81.56
7474;BME280;3778;42.572;23.426;2024-03-02T11:14:41;93114.22;;;7.79;83.69
7474;BME280;3778;42.572;23.426;2024-03-02T11:17:09;93119.88;;;7.71;83.45
7474;BME280;3778;42.572;23.426;2024-03-02T11:19:35;93108.56;;;7.72;84.23
7474;BME280;3778;42.572;23.426;2024-03-02T11:22:02;93112.63;;;7.58;84.09
7474;BME280;3778;42.572;23.426;2024-03-02T11:24:29;93114.66;;;7.45;84.82
7474;BME280;3778;42.572;23.426;2024-03-02T11:27:05;93110.59;;;7.60;84.57
7474;BME280;3778;42.572;23.426;2024-03-02T11:32:03;93109.03;;;7.38;85.38
7474;BME280;3778;42.572;23.426;2024-03-02T11:34:33;93105.72;;;7.48;85.01
7474;BME280;3778;42.572;23.426;2024-03-02T11:37:01;93101.09;;;7.50;85.90
7474;BME280;3778;42.572;23.426;2024-03-02T11:39:28;93108.28;;;7.48;86.22
7474;BME280;3778;42.572;23.426;2024-03-02T11:41:55;93104.44;;;7.40;85.19
7474;BME280;3778;42.572;23.426;2024-03-02T11:44:20;93105.72;;;7.53;85.05
7474;BME280;3778;42.572;23.426;2024-03-02T11:46:52;93102.41;;;7.52;85.08
7474;BME280;3778;42.572;23.426;2024-03-02T11:49:39;93106.50;;;7.53;84.43
7474;BME280;3778;42.572;23.426;2024-03-02T11:52:07;93100.84;;;7.41;84.71
7474;BME280;3778;42.572;23.426;2024-03-02T11:54:33;93109.03;;;7.38;86.31
7474;BME280;3778;42.572;23.426;2024-03-02T11:57:05;93104.41;;;7.30;86.22
7474;BME280;3778;42.572;23.426;2024-03-02T11:59:31;93116.13;;;7.11;87.17
7474;BME280;3778;42.572;23.426;2024-03-02T12:01:57;93106.19;;;7.24;86.83
7474;BME280;3778;42.572;23.426;2024-03-02T12:04:23;93116.19;;;7.31;85.85
7474;BME280;3778;42.572;23.426;2024-03-02T12:06:58;93117.19;;;7.25;85.90
7474;BME280;3778;42.572;23.426;2024-03-02T12:09:28;93113.56;;;7.16;87.06
7474;BME280;3778;42.572;23.426;2024-03-02T12:12:03;93105.88;;;7.16;86.55
7474;BME280;3778;42.572;23.426;2024-03-02T12:14:30;93110.50;;;7.19;86.38
7474;BME280;3778;42.572;23.426;2024-03-02T12:16:55;93115.59;;;7.09;87.27
7474;BME280;3778;42.572;23.426;2024-03-02T12:19:21;93122.28;;;7.15;87.30
7474;BME280;3778;42.572;23.426;2024-03-02T12:21:46;93123.03;;;7.05;87.17
7474;BME280;3778;42.572;23.426;2024-03-02T12:24:12;93120.69;;;7.04;87.48
7474;BME280;3778;42.572;23.426;2024-03-02T12:26:37;93119.47;;;7.11;87.15
7474;BME280;3778;42.572;23.426;2024-03-02T12:29:03;93119.19;;;7.08;87.75
7474;BME280;3778;42.572;23.426;2024-03-02T12:31:28;93112.81;;;7.20;87.19
7474;BME280;3778;42.572;23.426;2024-03-02T12:33:54;93115.63;;;7.14;87.15
7474;BME280;3778;42.572;23.426;2024-03-02T12:36:20;93114.38;;;7.16;87.83
7474;BME280;3778;42.572;23.426;2024-03-02T12:38:45;93111.53;;;7.18;87.17
7474;BME280;3778;42.572;23.426;2024-03-02T12:41:15;93111.31;;;7.24;86.78
7474;BME280;3778;42.572;23.426;2024-03-02T12:43:40;93114.16;;;7.28;87.10
7474;BME280;3778;42.572;23.426;2024-03-02T12:46:06;93117.69;;;7.27;86.69
7474;BME280;3778;42.572;23.426;2024-03-02T12:48:31;93121.81;;;7.23;87.02
7474;BME280;3778;42.572;23.426;2024-03-02T12:50:57;93118.47;;;7.28;86.45
7474;BME280;3778;42.572;23.426;2024-03-02T12:53:23;93118.97;;;7.19;86.40
7474;BME280;3778;42.572;23.426;2024-03-02T12:55:49;93126.16;;;7.22;86.93
7474;BME280;3778;42.572;23.426;2024-03-02T12:58:19;93117.69;;;7.27;86.58
7474;BME280;3778;42.572;23.426;2024-03-02T13:00:46;93119.03;;;7.35;86.42
7474;BME280;3778;42.572;23.426;2024-03-02T13:03:11;93125.16;;;7.39;85.27
7474;BME280;3778;42.572;23.426;2024-03-02T13:05:37;93121.84;;;7.43;84.98
7474;BME280;3778;42.572;23.426;2024-03-02T13:08:02;93120.06;;;7.49;85.16
7474;BME280;3778;42.572;23.426;2024-03-02T13:10:30;93125.72;;;7.56;84.96
7474;BME280;3778;42.572;23.426;2024-03-02T13:12:56;93120.88;;;7.65;84.75
7474;BME280;3778;42.572;23.426;2024-03-02T13:15:22;93121.63;;;7.75;84.03
7474;BME280;3778;42.572;23.426;2024-03-02T13:17:47;93122.94;;;7.78;84.02
7474;BME280;3778;42.572;23.426;2024-03-02T13:20:14;93127.81;;;7.79;82.91
7474;BME280;3778;42.572;23.426;2024-03-02T13:22:40;93119.59;;;7.93;82.82
7474;BME280;3778;42.572;23.426;2024-03-02T13:25:05;93125.00;;;8.01;82.59